createdAt,value
2018-08-30T00:00:45.572Z,5.17
2018-08-30T00:03:16.718Z,4.17
2018-08-30T00:05:47.703Z,3.70
2018-08-30T00:08:18.659Z,3.30
2018-08-30T00:10:49.107Z,2.92
2018-08-30T00:13:20.349Z,2.77
2018-08-30T00:15:50.467Z,2.95
2018-08-30T00:18:21.685Z,2.50
2018-08-30T00:20:53.375Z,2.60
2018-08-30T00:23:23.766Z,2.70
2018-08-30T00:25:54.827Z,2.83
2018-08-30T00:28:25.688Z,2.50
2018-08-30T00:30:56.042Z,2.65
2018-08-30T00:33:28.634Z,2.50
2018-08-30T00:36:02.700Z,2.30
2018-08-30T00:38:41.272Z,2.40
2018-08-30T00:41:12.134Z,2.40
2018-08-30T00:43:45.011Z,2.40
2018-08-30T00:46:16.716Z,2.20
2018-08-30T00:48:48.946Z,2.30
2018-08-30T00:51:21.688Z,2.02
2018-08-30T00:53:53.306Z,2.00
2018-08-30T00:56:23.326Z,1.90
2018-08-30T00:58:53.388Z,1.70
2018-08-30T01:01:23.578Z,1.90
2018-08-30T01:03:54.379Z,1.90
2018-08-30T01:06:25.014Z,2.20
2018-08-30T01:08:56.443Z,2.70
2018-08-30T01:11:26.465Z,2.70
2018-08-30T01:13:57.116Z,3.10
2018-08-30T01:16:28.112Z,3.25
2018-08-30T01:18:58.273Z,3.65
2018-08-30T01:21:30.177Z,3.52
2018-08-30T01:24:01.198Z,3.60
2018-08-30T01:26:31.276Z,4.12
2018-08-30T01:29:01.318Z,4.37
2018-08-30T01:31:33.081Z,4.53
2018-08-30T01:34:03.209Z,4.25
2018-08-30T01:36:35.418Z,4.60
2018-08-30T01:39:07.896Z,5.00
2018-08-30T01:41:38.915Z,4.75
2018-08-30T01:44:10.172Z,4.80
2018-08-30T01:46:40.755Z,4.72
2018-08-30T01:49:33.056Z,4.65
2018-08-30T01:52:03.205Z,5.22
2018-08-30T01:54:33.839Z,4.95
2018-08-30T01:57:04.371Z,4.80
2018-08-30T01:59:35.682Z,5.08
2018-08-30T02:02:12.411Z,4.73
2018-08-30T02:04:43.453Z,5.08
2018-08-30T02:07:14.103Z,4.70
2018-08-30T02:09:44.633Z,5.12
2018-08-30T02:12:15.917Z,5.28
2018-08-30T02:14:46.043Z,5.40
2018-08-30T02:17:17.655Z,5.10
2018-08-30T02:19:47.753Z,4.78
2018-08-30T02:22:18.775Z,5.00
2018-08-30T02:24:50.013Z,5.05
2018-08-30T02:27:20.413Z,5.30
2018-08-30T02:29:51.667Z,4.97
2018-08-30T02:32:21.689Z,4.90
2018-08-30T02:34:52.547Z,5.10
2018-08-30T02:38:26.423Z,4.85
2018-08-30T02:40:57.191Z,5.08
2018-08-30T02:43:27.244Z,4.42
2018-08-30T02:45:58.160Z,4.78
2018-08-30T02:48:29.096Z,4.70
2018-08-30T02:50:59.702Z,4.97
2018-08-30T02:53:30.927Z,4.10
2018-08-30T02:56:02.092Z,3.65
2018-08-30T02:58:33.819Z,3.52
2018-08-30T03:01:04.236Z,3.83
2018-08-30T03:03:34.557Z,4.33
2018-08-30T03:06:04.783Z,4.08
2018-08-30T03:08:35.190Z,4.03
2018-08-30T03:11:06.634Z,4.45
2018-08-30T03:13:36.703Z,4.90
2018-08-30T03:16:08.483Z,4.70
2018-08-30T03:18:38.611Z,4.60
2018-08-30T03:21:09.966Z,4.00
2018-08-30T03:23:41.005Z,4.00
2018-08-30T03:26:11.287Z,4.37
2018-08-30T03:28:42.982Z,3.87
2018-08-30T03:31:14.336Z,4.40
2018-08-30T03:33:44.419Z,4.87
2018-08-30T03:36:14.776Z,5.10
2018-08-30T03:38:46.539Z,5.08
2018-08-30T03:41:18.118Z,5.30
2018-08-30T03:43:50.869Z,5.22
2018-08-30T03:46:20.898Z,5.37
2018-08-30T03:48:51.005Z,5.25
2018-08-30T03:51:21.564Z,5.47
2018-08-30T03:53:52.582Z,5.28
2018-08-30T03:56:22.626Z,5.12
2018-08-30T03:58:53.792Z,5.30
2018-08-30T04:01:24.199Z,4.77
2018-08-30T04:03:56.075Z,5.35
2018-08-30T04:06:26.730Z,5.10
2018-08-30T04:08:57.885Z,5.30
2018-08-30T04:11:30.145Z,5.42
2018-08-30T04:14:00.788Z,5.50
2018-08-30T04:16:32.118Z,5.12
2018-08-30T04:19:11.144Z,5.20
2018-08-30T04:21:41.475Z,5.40
2018-08-30T04:24:12.248Z,4.70
2018-08-30T04:26:44.057Z,4.65
2018-08-30T04:29:14.085Z,4.70
2018-08-30T04:31:45.684Z,5.03
2018-08-30T04:34:16.738Z,4.83
2018-08-30T04:36:48.720Z,4.85
2018-08-30T04:39:20.088Z,4.85
2018-08-30T04:41:50.570Z,5.85
2018-08-30T04:44:21.149Z,6.60
2018-08-30T04:46:53.263Z,6.53
2018-08-30T04:49:24.282Z,6.40
2018-08-30T04:51:54.530Z,6.47
2018-08-30T04:54:25.086Z,6.30
2018-08-30T04:56:55.240Z,7.12
2018-08-30T04:59:26.026Z,7.25
2018-08-30T05:01:58.459Z,8.65
2018-08-30T05:04:30.248Z,9.78
2018-08-30T05:07:00.772Z,10.10
2018-08-30T05:09:30.909Z,11.10
2018-08-30T05:12:02.548Z,11.65
2018-08-30T05:14:33.336Z,11.73
2018-08-30T05:17:05.191Z,12.15
2018-08-30T05:19:36.526Z,11.97
2018-08-30T05:22:06.824Z,13.00
2018-08-30T05:24:38.086Z,12.88
2018-08-30T05:27:10.460Z,13.08
2018-08-30T05:29:40.718Z,12.63
2018-08-30T05:32:10.924Z,13.35
2018-08-30T05:34:41.429Z,12.88
2018-08-30T05:37:12.860Z,12.13
2018-08-30T05:39:43.016Z,13.03
2018-08-30T05:42:14.562Z,11.78
2018-08-30T05:44:47.038Z,14.00
2018-08-30T05:47:18.436Z,11.88
2018-08-30T05:49:53.590Z,12.88
2018-08-30T05:52:25.212Z,12.90
2018-08-30T05:54:56.028Z,14.75
2018-08-30T05:57:28.315Z,12.30
2018-08-30T06:00:01.096Z,12.95
2018-08-30T06:02:32.008Z,11.90
2018-08-30T06:05:02.959Z,11.63
2018-08-30T06:07:33.769Z,10.90
2018-08-30T06:10:06.944Z,11.40
2018-08-30T06:12:38.313Z,10.70
2018-08-30T06:15:13.864Z,11.25
2018-08-30T06:17:44.141Z,10.85
2018-08-30T06:20:15.237Z,10.63
2018-08-30T06:22:45.795Z,11.38
2018-08-30T06:25:16.977Z,10.28
2018-08-30T06:27:48.059Z,9.88
2018-08-30T06:30:20.140Z,9.90
2018-08-30T06:32:50.229Z,9.90
2018-08-30T06:35:21.311Z,9.23
2018-08-30T06:37:52.200Z,8.90
2018-08-30T06:40:23.723Z,9.08
2018-08-30T06:42:53.902Z,9.95
2018-08-30T06:45:25.894Z,9.70
2018-08-30T06:47:57.639Z,9.17
2018-08-30T06:50:28.355Z,9.13
2018-08-30T06:52:59.992Z,9.38
2018-08-30T06:55:31.245Z,9.88
2018-08-30T06:58:04.283Z,10.15
2018-08-30T07:00:35.601Z,10.20
2018-08-30T07:03:08.303Z,10.05
2018-08-30T07:05:39.015Z,10.45
2018-08-30T07:08:10.314Z,10.90
2018-08-30T07:10:41.739Z,10.35
2018-08-30T07:13:13.467Z,10.85
2018-08-30T07:15:45.332Z,12.43
2018-08-30T07:18:17.825Z,10.50
2018-08-30T07:20:49.917Z,11.28
2018-08-30T07:23:20.636Z,10.88
2018-08-30T07:25:51.684Z,10.43
2018-08-30T07:28:22.184Z,8.20
2018-08-30T07:30:53.872Z,7.80
2018-08-30T07:33:24.722Z,7.00
2018-08-30T07:35:54.918Z,6.95
2018-08-30T07:38:25.914Z,7.30
2018-08-30T07:40:56.037Z,6.90
2018-08-30T07:43:26.178Z,7.03
2018-08-30T07:45:56.269Z,6.75
2018-08-30T07:48:26.940Z,6.40
2018-08-30T07:50:58.830Z,6.22
2018-08-30T07:53:30.519Z,6.33
2018-08-30T07:56:04.371Z,6.17
2018-08-30T07:58:35.000Z,5.87
2018-08-30T08:01:06.118Z,6.25
2018-08-30T08:03:37.145Z,5.85
2018-08-30T08:06:08.559Z,5.00
2018-08-30T08:08:39.474Z,4.90
2018-08-30T08:11:09.999Z,5.22
2018-08-30T08:13:40.486Z,4.00
2018-08-30T08:16:11.539Z,3.85
2018-08-30T08:18:41.791Z,3.83
2018-08-30T08:21:13.188Z,3.75
2018-08-30T08:23:44.326Z,3.80
2018-08-30T08:26:15.999Z,3.60
2018-08-30T08:28:46.872Z,3.08
2018-08-30T08:31:18.906Z,3.37
2018-08-30T08:33:49.988Z,2.60
2018-08-30T08:36:21.259Z,2.35
2018-08-30T08:38:52.874Z,2.55
2018-08-30T08:41:24.240Z,3.05
2018-08-30T08:43:55.966Z,2.25
2018-08-30T08:46:27.714Z,1.98
2018-08-30T08:48:58.598Z,2.47
2018-08-30T08:51:29.360Z,2.33
2018-08-30T08:54:01.438Z,2.33
2018-08-30T08:56:33.245Z,1.93
2018-08-30T08:59:05.113Z,2.55
2018-08-30T09:01:35.536Z,2.58
2018-08-30T09:04:06.237Z,3.00
2018-08-30T09:06:36.876Z,2.85
2018-08-30T09:09:11.104Z,2.60
2018-08-30T09:11:41.973Z,2.77
2018-08-30T09:14:12.383Z,2.83
2018-08-30T09:16:43.172Z,2.97
2018-08-30T09:19:14.048Z,2.42
2018-08-30T09:21:44.606Z,2.65
2018-08-30T09:24:15.344Z,2.70
2018-08-30T09:26:45.564Z,2.60
2018-08-30T09:29:15.888Z,2.90
2018-08-30T09:31:46.465Z,2.05
2018-08-30T09:34:18.353Z,3.95
2018-08-30T09:36:48.981Z,2.72
2018-08-30T09:39:19.353Z,2.58
2018-08-30T09:41:50.151Z,1.60
2018-08-30T09:44:20.237Z,2.60
2018-08-30T09:46:50.296Z,1.35
2018-08-30T09:49:20.525Z,1.50
2018-08-30T09:51:51.596Z,1.77
2018-08-30T09:54:21.925Z,1.50
2018-08-30T09:56:52.216Z,1.32
2018-08-30T09:59:22.849Z,1.35
2018-08-30T10:01:59.122Z,1.30
2018-08-30T10:04:29.806Z,1.32
2018-08-30T10:07:00.805Z,1.20
2018-08-30T10:09:32.655Z,1.70
2018-08-30T10:12:02.736Z,1.32
2018-08-30T10:14:33.666Z,1.30
2018-08-30T10:17:05.753Z,1.40
2018-08-30T10:19:36.521Z,1.80
2018-08-30T10:22:10.045Z,2.27
2018-08-30T10:24:41.252Z,1.50
2018-08-30T10:27:12.533Z,1.50
2018-08-30T10:29:43.907Z,1.70
2018-08-30T10:32:16.943Z,1.40
2018-08-30T10:34:49.191Z,1.52
2018-08-30T10:37:19.911Z,1.60
2018-08-30T10:39:50.708Z,2.07
2018-08-30T10:42:23.667Z,2.10
2018-08-30T10:44:56.482Z,1.70
2018-08-30T10:47:27.713Z,2.08
2018-08-30T10:49:58.402Z,3.45
2018-08-30T10:52:30.276Z,3.92
2018-08-30T10:55:01.620Z,4.33
2018-08-30T10:57:32.404Z,4.10
2018-08-30T11:00:03.257Z,4.00
2018-08-30T11:02:33.486Z,4.50
2018-08-30T11:05:03.663Z,3.90
2018-08-30T11:07:33.881Z,4.20
2018-08-30T11:10:04.186Z,4.17
2018-08-30T11:12:35.965Z,3.92
2018-08-30T11:15:06.319Z,4.78
2018-08-30T11:17:38.935Z,4.70
2018-08-30T11:20:09.941Z,4.03
2018-08-30T11:22:39.955Z,4.47
2018-08-30T11:25:10.127Z,4.30
2018-08-30T11:27:40.290Z,4.17
2018-08-30T11:30:10.340Z,4.60
2018-08-30T11:32:42.050Z,4.28
2018-08-30T11:35:13.558Z,4.53
2018-08-30T11:37:43.666Z,5.03
2018-08-30T11:40:15.151Z,4.97
2018-08-30T11:42:46.501Z,5.25
2018-08-30T11:45:17.987Z,5.05
2018-08-30T11:47:48.085Z,5.60
2018-08-30T11:50:19.276Z,5.70
2018-08-30T11:52:50.794Z,5.62
2018-08-30T11:55:22.835Z,6.10
2018-08-30T11:57:54.647Z,6.53
2018-08-30T12:00:30.631Z,6.97
2018-08-30T12:03:01.712Z,7.60
2018-08-30T12:05:34.599Z,7.67
2018-08-30T12:08:05.822Z,8.00
2018-08-30T12:10:37.457Z,8.00
2018-08-30T12:13:08.522Z,7.85
2018-08-30T12:15:39.751Z,9.40
2018-08-30T12:18:09.955Z,9.58
2018-08-30T12:20:41.582Z,10.45
2018-08-30T12:23:12.198Z,9.78
2018-08-30T12:25:42.408Z,10.38
2018-08-30T12:28:13.934Z,9.10
2018-08-30T12:30:44.397Z,9.80
2018-08-30T12:33:14.525Z,9.93
2018-08-30T12:35:45.763Z,9.30
2018-08-30T12:38:16.035Z,9.43
2018-08-30T12:40:46.182Z,8.87
2018-08-30T12:43:17.725Z,8.80
2018-08-30T12:45:49.368Z,8.65
2018-08-30T12:48:19.418Z,7.72
2018-08-30T12:50:50.340Z,8.63
2018-08-30T12:53:22.391Z,8.30
2018-08-30T12:55:53.172Z,8.28
2018-08-30T12:58:24.342Z,9.35
2018-08-30T13:00:54.914Z,8.63
2018-08-30T13:03:25.899Z,8.40
2018-08-30T13:05:59.086Z,7.92
2018-08-30T13:08:30.671Z,8.60
2018-08-30T13:11:03.225Z,8.13
2018-08-30T13:13:35.130Z,8.55
2018-08-30T13:16:07.456Z,8.93
2018-08-30T13:18:38.195Z,9.10
2018-08-30T13:21:09.172Z,9.03
2018-08-30T13:23:41.533Z,9.93
2018-08-30T13:26:12.373Z,9.03
2018-08-30T13:28:43.711Z,9.60
2018-08-30T13:31:15.414Z,8.88
2018-08-30T13:33:46.478Z,9.20
2018-08-30T13:36:16.996Z,8.23
2018-08-30T13:38:48.995Z,8.20
2018-08-30T13:41:19.833Z,7.80
2018-08-30T13:43:50.607Z,7.83
2018-08-30T13:46:21.818Z,7.90
2018-08-30T13:48:52.394Z,7.28
2018-08-30T13:51:24.400Z,6.90
2018-08-30T13:53:55.007Z,6.60
2018-08-30T13:56:25.904Z,6.85
2018-08-30T13:58:56.365Z,7.22
2018-08-30T14:01:26.962Z,6.75
2018-08-30T14:03:57.044Z,7.20
2018-08-30T14:06:27.428Z,7.53
2018-08-30T14:08:58.849Z,6.53
2018-08-30T14:11:30.522Z,6.92
2018-08-30T14:14:00.994Z,7.20
2018-08-30T14:16:30.977Z,6.45
2018-08-30T14:19:01.214Z,7.30
2018-08-30T14:21:32.624Z,7.12
2018-08-30T14:24:02.872Z,6.70
2018-08-30T14:26:33.025Z,7.20
2018-08-30T14:29:03.094Z,7.00
2018-08-30T14:31:33.278Z,7.20
2018-08-30T14:34:04.641Z,7.90
2018-08-30T14:36:36.540Z,7.45
2018-08-30T14:39:10.098Z,7.10
2018-08-30T14:41:41.383Z,6.80
2018-08-30T14:44:11.558Z,6.33
2018-08-30T14:46:42.838Z,6.33
2018-08-30T14:49:12.942Z,5.97
2018-08-30T14:51:44.867Z,6.17
2018-08-30T14:54:15.526Z,5.87
2018-08-30T14:56:46.049Z,5.97
2018-08-30T14:59:16.830Z,6.20
2018-08-30T15:01:47.089Z,6.12
2018-08-30T15:04:16.981Z,6.80
2018-08-30T15:06:47.376Z,5.93
2018-08-30T15:09:18.161Z,6.62
2018-08-30T15:11:49.736Z,6.33
2018-08-30T15:14:22.370Z,6.80
2018-08-30T15:16:53.433Z,6.33
2018-08-30T15:19:25.127Z,6.33
2018-08-30T15:21:56.836Z,6.90
2018-08-30T15:24:28.620Z,6.72
2018-08-30T15:27:00.535Z,6.83
2018-08-30T15:29:33.680Z,10.85
2018-08-30T15:32:05.555Z,7.97
2018-08-30T15:34:37.540Z,6.30
2018-08-30T15:37:11.479Z,6.80
2018-08-30T15:39:42.682Z,6.80
2018-08-30T15:42:13.036Z,10.72
2018-08-30T15:44:45.116Z,8.00
2018-08-30T15:47:15.594Z,6.97
2018-08-30T15:49:46.595Z,7.10
2018-08-30T15:52:16.660Z,6.67
2018-08-30T15:54:47.057Z,6.57
2018-08-30T15:57:17.423Z,7.05
2018-08-30T15:59:48.013Z,7.78
2018-08-30T16:02:18.735Z,7.80
2018-08-30T16:04:50.168Z,7.20
2018-08-30T16:07:20.755Z,6.97
2018-08-30T16:09:51.082Z,7.37
2018-08-30T16:12:21.310Z,7.10
2018-08-30T16:14:51.481Z,8.45
2018-08-30T16:17:21.941Z,8.08
2018-08-30T16:19:52.036Z,7.85
2018-08-30T16:22:28.363Z,7.53
2018-08-30T16:24:59.278Z,7.33
2018-08-30T16:27:31.992Z,7.03
2018-08-30T16:30:02.159Z,7.15
2018-08-30T16:32:32.820Z,6.97
2018-08-30T16:35:04.161Z,7.08
2018-08-30T16:37:37.914Z,7.25
2018-08-30T16:40:10.732Z,6.92
2018-08-30T16:42:43.075Z,7.30
2018-08-30T16:45:13.942Z,7.60
2018-08-30T16:47:44.556Z,8.15
2018-08-30T16:50:15.478Z,7.62
2018-08-30T16:52:47.650Z,16.15
2018-08-30T16:55:19.339Z,9.58
2018-08-30T16:57:50.866Z,9.55
2018-08-30T17:00:21.662Z,8.57
2018-08-30T17:02:53.310Z,7.83
2018-08-30T17:05:25.544Z,7.33
2018-08-30T17:07:56.572Z,7.85
2018-08-30T17:10:28.623Z,7.15
2018-08-30T17:12:59.808Z,7.15
2018-08-30T17:15:30.963Z,6.80
2018-08-30T17:18:03.350Z,7.23
2018-08-30T17:20:37.536Z,7.28
2018-08-30T17:23:09.179Z,7.20
2018-08-30T17:25:39.371Z,7.12
2018-08-30T17:28:09.584Z,7.20
2018-08-30T17:30:41.095Z,7.10
2018-08-30T17:33:12.917Z,7.30
2018-08-30T17:35:47.231Z,7.15
2018-08-30T17:38:18.618Z,7.40
2018-08-30T17:40:49.700Z,7.65
2018-08-30T17:43:21.678Z,7.78
2018-08-30T17:45:52.314Z,9.80
2018-08-30T17:48:24.576Z,8.73
2018-08-30T17:50:55.121Z,11.30
2018-08-30T17:53:26.035Z,9.93
2018-08-30T17:55:57.863Z,9.90
2018-08-30T17:58:28.743Z,8.85
2018-08-30T18:00:59.332Z,10.25
2018-08-30T18:03:30.696Z,9.45
2018-08-30T18:06:02.456Z,10.38
2018-08-30T18:08:33.889Z,11.87
2018-08-30T18:11:06.824Z,10.80
2018-08-30T18:13:37.083Z,9.48
2018-08-30T18:16:07.218Z,9.20
2018-08-30T18:18:39.616Z,11.20
2018-08-30T18:21:11.200Z,9.83
2018-08-30T18:23:42.588Z,12.93
2018-08-30T18:26:13.567Z,10.10
2018-08-30T18:28:44.689Z,10.05
2018-08-30T18:31:15.063Z,11.10
2018-08-30T18:33:45.146Z,10.18
2018-08-30T18:36:15.356Z,17.30
2018-08-30T18:38:46.975Z,13.28
2018-08-30T18:41:35.430Z,10.85
2018-08-30T18:44:07.845Z,11.30
2018-08-30T18:47:02.972Z,9.45
2018-08-30T18:49:36.079Z,11.85
2018-08-30T18:52:07.423Z,10.28
2018-08-30T18:54:40.387Z,10.10
2018-08-30T18:57:23.882Z,9.97
2018-08-30T18:59:55.353Z,9.33
2018-08-30T19:02:26.801Z,9.15
2018-08-30T19:04:57.886Z,9.53
2018-08-30T19:07:28.610Z,9.57
2018-08-30T19:09:59.348Z,9.70
2018-08-30T19:12:35.217Z,9.38
2018-08-30T19:15:10.139Z,9.58
2018-08-30T19:17:45.942Z,10.23
2018-08-30T19:20:18.906Z,9.60
2018-08-30T19:22:50.096Z,9.95
2018-08-30T19:25:26.349Z,10.35
2018-08-30T19:27:57.069Z,10.05
2018-08-30T19:30:28.652Z,10.27
2018-08-30T19:32:59.549Z,10.13
2018-08-30T19:35:35.104Z,10.10
2018-08-30T19:38:06.321Z,10.85
2018-08-30T19:40:42.114Z,10.68
2018-08-30T19:43:12.289Z,10.70
2018-08-30T19:45:44.388Z,10.20
2018-08-30T19:48:15.561Z,10.10
2018-08-30T19:50:46.235Z,10.50
2018-08-30T19:53:16.886Z,10.50
2018-08-30T19:55:46.995Z,11.10
2018-08-30T19:58:17.224Z,11.10
2018-08-30T20:00:48.577Z,11.03
2018-08-30T20:03:19.468Z,10.48
2018-08-30T20:05:49.722Z,10.63
2018-08-30T20:08:20.355Z,10.55
2018-08-30T20:10:51.848Z,10.45
2018-08-30T20:13:22.005Z,10.75
2018-08-30T20:15:52.242Z,11.35
2018-08-30T20:18:23.664Z,10.93
2018-08-30T20:20:54.509Z,10.90
2018-08-30T20:23:24.934Z,10.68
2018-08-30T20:25:56.756Z,11.08
2018-08-30T20:28:27.548Z,10.85
2018-08-30T20:30:57.897Z,11.73
2018-08-30T20:33:29.478Z,11.13
2018-08-30T20:36:00.883Z,10.65
2018-08-30T20:38:31.581Z,10.90
2018-08-30T20:41:03.062Z,10.95
2018-08-30T20:43:34.160Z,11.43
2018-08-30T20:46:04.636Z,11.70
2018-08-30T20:48:35.437Z,10.82
2018-08-30T20:51:05.944Z,11.55
2018-08-30T20:53:37.638Z,12.53
2018-08-30T20:56:08.197Z,11.05
2018-08-30T20:58:39.388Z,11.88
2018-08-30T21:01:09.985Z,16.32
2018-08-30T21:03:41.301Z,11.40
2018-08-30T21:06:11.605Z,11.68
2018-08-30T21:08:43.254Z,11.40
2018-08-30T21:11:13.504Z,11.88
2018-08-30T21:13:45.736Z,11.33
2018-08-30T21:16:16.088Z,11.80
2018-08-30T21:18:46.248Z,11.75
2018-08-30T21:21:16.587Z,13.95
2018-08-30T21:23:46.673Z,12.77
2018-08-30T21:26:18.037Z,12.50
2018-08-30T21:28:54.574Z,12.37
2018-08-30T21:31:26.228Z,12.50
2018-08-30T21:33:56.396Z,11.88
2018-08-30T21:36:26.667Z,12.70
2018-08-30T21:38:57.303Z,16.37
2018-08-30T21:41:29.176Z,12.27
2018-08-30T21:44:01.574Z,16.20
2018-08-30T21:46:31.769Z,15.90
2018-08-30T21:49:03.634Z,13.57
2018-08-30T21:51:34.444Z,14.30
2018-08-30T21:54:04.809Z,18.02
2018-08-30T21:56:36.974Z,14.80
2018-08-30T21:59:09.432Z,13.60
2018-08-30T22:01:39.703Z,12.15
2018-08-30T22:04:12.090Z,12.57
2018-08-30T22:06:43.116Z,12.45
2018-08-30T22:09:14.832Z,12.53
2018-08-30T22:11:45.016Z,13.18
2018-08-30T22:14:15.986Z,13.10
2018-08-30T22:16:48.264Z,12.82
2018-08-30T22:19:19.754Z,12.30
2018-08-30T22:21:51.482Z,12.65
2018-08-30T22:24:22.780Z,12.50
2018-08-30T22:26:53.101Z,13.15
2018-08-30T22:29:23.343Z,12.65
2018-08-30T22:31:53.581Z,12.00
2018-08-30T22:34:24.219Z,12.70
2018-08-30T22:36:54.421Z,12.88
2018-08-30T22:39:25.911Z,12.82
2018-08-30T22:41:56.018Z,12.87
2018-08-30T22:44:27.937Z,12.75
2018-08-30T22:46:58.547Z,12.37
2018-08-30T22:49:31.281Z,12.78
2018-08-30T22:52:01.999Z,12.83
2018-08-30T22:54:32.341Z,12.03
2018-08-30T22:57:04.951Z,12.68
2018-08-30T22:59:36.530Z,13.00
2018-08-30T23:02:07.400Z,13.30
2018-08-30T23:04:38.932Z,13.18
2018-08-30T23:07:09.321Z,12.45
2018-08-30T23:09:40.182Z,13.32
2018-08-30T23:12:10.972Z,12.80
2018-08-30T23:14:41.765Z,13.15
2018-08-30T23:17:12.061Z,12.55
2018-08-30T23:19:44.042Z,13.03
2018-08-30T23:22:14.829Z,12.98
2018-08-30T23:24:45.101Z,13.65
2018-08-30T23:27:15.878Z,12.85
2018-08-30T23:29:47.889Z,12.73
2018-08-30T23:32:18.242Z,12.78
2018-08-30T23:34:49.409Z,13.32
2018-08-30T23:37:20.346Z,13.53
2018-08-30T23:39:50.697Z,12.98
2018-08-30T23:42:21.946Z,13.10
2018-08-30T23:44:53.502Z,13.90
2018-08-30T23:47:24.988Z,13.22
2018-08-30T23:49:55.285Z,13.85
2018-08-30T23:52:27.759Z,13.88
2018-08-30T23:54:57.964Z,13.13
2018-08-30T23:57:28.668Z,13.40
